sensor_id;sensor_type;location;lat;lon;timestamp;temperature;humidity
6484;DHT22;3275;52.376;9.694;2023-08-30T12:35:12;25.90;84.90
6484;DHT22;3275;52.376;9.694;2023-08-30T12:37:39;24.90;85.50
6484;DHT22;3275;52.376;9.694;2023-08-30T12:40:06;24.10;86.60
6484;DHT22;3275;52.376;9.694;2023-08-30T12:42:33;23.40;87.50
6484;DHT22;3275;52.376;9.694;2023-08-30T12:45:00;22.70;88.90
6484;DHT22;3275;52.376;9.694;2023-08-30T12:47:28;22.10;89.40
6484;DHT22;3275;52.376;9.694;2023-08-30T12:49:55;21.90;90.00
6484;DHT22;3275;52.376;9.694;2023-08-30T12:52:23;21.50;90.90
6484;DHT22;3275;52.376;9.694;2023-08-30T12:54:50;21.20;90.80
6484;DHT22;3275;52.376;9.694;2023-08-30T12:57:17;21.10;91.20
6484;DHT22;3275;52.376;9.694;2023-08-30T12:59:44;20.90;92.00
6484;DHT22;3275;52.376;9.694;2023-08-30T13:02:10;20.70;92.40
6484;DHT22;3275;52.376;9.694;2023-08-30T13:04:37;20.70;92.20
6484;DHT22;3275;52.376;9.694;2023-08-30T13:07:04;20.60;92.10
6484;DHT22;3275;52.376;9.694;2023-08-30T13:09:32;20.70;92.00
6484;DHT22;3275;52.376;9.694;2023-08-30T13:11:59;20.80;92.80
6484;DHT22;3275;52.376;9.694;2023-08-30T13:14:26;21.00;92.80
6484;DHT22;3275;52.376;9.694;2023-08-30T13:16:52;21.20;93.30
6484;DHT22;3275;52.376;9.694;2023-08-30T13:19:19;21.10;92.80
6484;DHT22;3275;52.376;9.694;2023-08-30T13:21:45;21.10;92.30
6484;DHT22;3275;52.376;9.694;2023-08-30T13:24:12;20.90;91.30
6484;DHT22;3275;52.376;9.694;2023-08-30T13:26:40;20.80;91.60
6484;DHT22;3275;52.376;9.694;2023-08-30T13:29:07;20.80;91.50
6484;DHT22;3275;52.376;9.694;2023-08-30T13:31:34;20.60;91.50
6484;DHT22;3275;52.376;9.694;2023-08-30T13:34:00;20.50;91.80
6484;DHT22;3275;52.376;9.694;2023-08-30T13:36:28;20.50;92.00
6484;DHT22;3275;52.376;9.694;2023-08-30T13:38:54;20.60;91.90
6484;DHT22;3275;52.376;9.694;2023-08-30T13:41:21;20.80;92.40
6484;DHT22;3275;52.376;9.694;2023-08-30T13:43:49;21.10;91.70
6484;DHT22;3275;52.376;9.694;2023-08-30T13:46:16;21.50;92.10
6484;DHT22;3275;52.376;9.694;2023-08-30T13:48:43;22.10;92.10
6484;DHT22;3275;52.376;9.694;2023-08-30T13:51:09;22.20;91.60
6484;DHT22;3275;52.376;9.694;2023-08-30T13:53:36;22.00;91.50
6484;DHT22;3275;52.376;9.694;2023-08-30T13:56:04;21.70;91.90
6484;DHT22;3275;52.376;9.694;2023-08-30T13:58:30;21.40;92.20
6484;DHT22;3275;52.376;9.694;2023-08-30T14:00:58;21.20;91.50
6484;DHT22;3275;52.376;9.694;2023-08-30T14:03:25;21.00;92.10
6484;DHT22;3275;52.376;9.694;2023-08-30T14:05:52;20.90;91.80
6484;DHT22;3275;52.376;9.694;2023-08-30T14:08:18;20.70;92.30
6484;DHT22;3275;52.376;9.694;2023-08-30T14:10:45;20.60;92.40
6484;DHT22;3275;52.376;9.694;2023-08-30T14:13:11;20.50;92.60
6484;DHT22;3275;52.376;9.694;2023-08-30T14:15:38;20.40;92.60
6484;DHT22;3275;52.376;9.694;2023-08-30T14:18:06;20.40;92.80
6484;DHT22;3275;52.376;9.694;2023-08-30T14:20:33;20.40;93.00
6484;DHT22;3275;52.376;9.694;2023-08-30T14:23:00;20.40;93.30
6484;DHT22;3275;52.376;9.694;2023-08-30T14:25:26;20.40;93.20
6484;DHT22;3275;52.376;9.694;2023-08-30T14:27:53;20.30;93.40
6484;DHT22;3275;52.376;9.694;2023-08-30T14:30:20;20.30;93.80
6484;DHT22;3275;52.376;9.694;2023-08-30T14:32:47;20.30;94.30
6484;DHT22;3275;52.376;9.694;2023-08-30T14:35:15;20.30;94.20
6484;DHT22;3275;52.376;9.694;2023-08-30T14:37:41;20.20;93.20
6484;DHT22;3275;52.376;9.694;2023-08-30T14:40:08;20.30;93.20
6484;DHT22;3275;52.376;9.694;2023-08-30T14:42:35;20.30;92.80
6484;DHT22;3275;52.376;9.694;2023-08-30T14:45:03;20.30;92.40
6484;DHT22;3275;52.376;9.694;2023-08-30T14:47:32;20.20;92.60
6484;DHT22;3275;52.376;9.694;2023-08-30T14:49:59;20.00;93.30
6484;DHT22;3275;52.376;9.694;2023-08-30T14:52:28;19.90;95.40
6484;DHT22;3275;52.376;9.694;2023-08-30T14:54:55;19.60;97.90
6484;DHT22;3275;52.376;9.694;2023-08-30T14:57:22;19.30;98.80
6484;DHT22;3275;52.376;9.694;2023-08-30T14:59:50;19.10;99.90
6484;DHT22;3275;52.376;9.694;2023-08-30T15:02:16;18.90;99.90
6484;DHT22;3275;52.376;9.694;2023-08-30T15:04:43;18.80;99.90
6484;DHT22;3275;52.376;9.694;2023-08-30T15:07:10;18.70;99.90
6484;DHT22;3275;52.376;9.694;2023-08-30T15:09:38;18.50;99.90
6484;DHT22;3275;52.376;9.694;2023-08-30T15:12:05;18.40;99.90
6484;DHT22;3275;52.376;9.694;2023-08-30T15:14:32;18.40;99.90
6484;DHT22;3275;52.376;9.694;2023-08-30T15:16:59;18.30;99.90
6484;DHT22;3275;52.376;9.694;2023-08-30T15:19:26;18.30;99.90
6484;DHT22;3275;52.376;9.694;2023-08-30T15:21:52;18.30;99.90
6484;DHT22;3275;52.376;9.694;2023-08-30T15:24:19;18.30;99.90
6484;DHT22;3275;52.376;9.694;2023-08-30T15:26:47;18.30;99.90
6484;DHT22;3275;52.376;9.694;2023-08-30T15:29:14;18.30;99.90
6484;DHT22;3275;52.376;9.694;2023-08-30T15:31:41;18.20;99.90
6484;DHT22;3275;52.376;9.694;2023-08-30T15:34:08;18.20;99.90
6484;DHT22;3275;52.376;9.694;2023-08-30T15:36:35;18.00;99.90
6484;DHT22;3275;52.376;9.694;2023-08-30T15:39:01;17.90;99.90
6484;DHT22;3275;52.376;9.694;2023-08-30T15:41:28;17.80;99.90
6484;DHT22;3275;52.376;9.694;2023-08-30T15:43:56;17.70;99.90
6484;DHT22;3275;52.376;9.694;2023-08-30T15:46:23;17.60;99.90
6484;DHT22;3275;52.376;9.694;2023-08-30T15:48:50;17.50;99.90
6484;DHT22;3275;52.376;9.694;2023-08-30T15:51:19;17.50;99.90
6484;DHT22;3275;52.376;9.694;2023-08-30T15:53:45;17.40;99.90
6484;DHT22;3275;52.376;9.694;2023-08-30T15:56:12;17.40;99.90
6484;DHT22;3275;52.376;9.694;2023-08-30T15:58:38;17.30;99.90
6484;DHT22;3275;52.376;9.694;2023-08-30T16:01:07;17.20;99.90
6484;DHT22;3275;52.376;9.694;2023-08-30T16:03:33;17.20;99.90
6484;DHT22;3275;52.376;9.694;2023-08-30T16:06:02;17.20;99.90
6484;DHT22;3275;52.376;9.694;2023-08-30T16:08:29;17.20;99.90
6484;DHT22;3275;52.376;9.694;2023-08-30T16:10:56;17.20;99.90
6484;DHT22;3275;52.376;9.694;2023-08-30T16:13:23;17.10;99.90
6484;DHT22;3275;52.376;9.694;2023-08-30T16:15:49;17.10;99.90
6484;DHT22;3275;52.376;9.694;2023-08-30T16:18:17;17.10;99.90
6484;DHT22;3275;52.376;9.694;2023-08-30T16:20:44;17.10;99.90
6484;DHT22;3275;52.376;9.694;2023-08-30T16:23:11;17.00;99.90
6484;DHT22;3275;52.376;9.694;2023-08-30T16:25:38;17.10;99.90
6484;DHT22;3275;52.376;9.694;2023-08-30T16:28:05;17.10;99.90
6484;DHT22;3275;52.376;9.694;2023-08-30T16:30:33;17.10;99.90
6484;DHT22;3275;52.376;9.694;2023-08-30T16:33:00;17.00;99.90
6484;DHT22;3275;52.376;9.694;2023-08-30T16:35:28;16.90;99.90
6484;DHT22;3275;52.376;9.694;2023-08-30T16:37:55;16.80;99.90
6484;DHT22;3275;52.376;9.694;2023-08-30T16:40:22;16.70;99.90
6484;DHT22;3275;52.376;9.694;2023-08-30T16:42:49;16.70;99.90
6484;DHT22;3275;52.376;9.694;2023-08-30T16:45:16;16.60;99.90
6484;DHT22;3275;52.376;9.694;2023-08-30T16:47:42;16.60;99.90
6484;DHT22;3275;52.376;9.694;2023-08-30T16:50:09;16.50;99.90
6484;DHT22;3275;52.376;9.694;2023-08-30T16:52:38;16.50;99.90
6484;DHT22;3275;52.376;9.694;2023-08-30T16:55:06;16.50;99.90
6484;DHT22;3275;52.376;9.694;2023-08-30T16:57:32;16.50;99.90
6484;DHT22;3275;52.376;9.694;2023-08-30T16:59:59;16.50;99.90
6484;DHT22;3275;52.376;9.694;2023-08-30T17:02:26;16.50;99.90
6484;DHT22;3275;52.376;9.694;2023-08-30T17:04:52;16.50;99.90
6484;DHT22;3275;52.376;9.694;2023-08-30T17:07:19;16.50;99.90
6484;DHT22;3275;52.376;9.694;2023-08-30T17:09:47;16.40;99.90
6484;DHT22;3275;52.376;9.694;2023-08-30T17:12:13;16.40;99.90
6484;DHT22;3275;52.376;9.694;2023-08-30T17:14:40;16.30;99.90
6484;DHT22;3275;52.376;9.694;2023-08-30T17:17:07;16.40;99.90
6484;DHT22;3275;52.376;9.694;2023-08-30T17:19:33;16.30;99.90
6484;DHT22;3275;52.376;9.694;2023-08-30T17:22:00;16.30;99.90
6484;DHT22;3275;52.376;9.694;2023-08-30T17:24:27;16.30;99.90
6484;DHT22;3275;52.376;9.694;2023-08-30T17:26:56;16.20;99.90
6484;DHT22;3275;52.376;9.694;2023-08-30T17:29:25;16.20;99.90
6484;DHT22;3275;52.376;9.694;2023-08-30T17:31:51;16.20;99.90
6484;DHT22;3275;52.376;9.694;2023-08-30T17:34:18;16.20;99.90
6484;DHT22;3275;52.376;9.694;2023-08-30T17:36:45;16.20;99.90
6484;DHT22;3275;52.376;9.694;2023-08-30T17:39:13;16.20;99.90
6484;DHT22;3275;52.376;9.694;2023-08-30T17:41:40;16.20;99.90
6484;DHT22;3275;52.376;9.694;2023-08-30T17:44:09;16.20;99.90
6484;DHT22;3275;52.376;9.694;2023-08-30T17:46:36;16.10;99.90
6484;DHT22;3275;52.376;9.694;2023-08-30T17:49:03;16.10;99.90
6484;DHT22;3275;52.376;9.694;2023-08-30T17:51:29;16.10;99.90
6484;DHT22;3275;52.376;9.694;2023-08-30T17:53:56;16.10;99.90
6484;DHT22;3275;52.376;9.694;2023-08-30T17:56:23;16.10;99.90
6484;DHT22;3275;52.376;9.694;2023-08-30T17:58:50;16.10;99.90
6484;DHT22;3275;52.376;9.694;2023-08-30T18:01:18;16.00;99.90
6484;DHT22;3275;52.376;9.694;2023-08-30T18:03:45;16.00;99.90
6484;DHT22;3275;52.376;9.694;2023-08-30T18:06:12;16.00;99.90
6484;DHT22;3275;52.376;9.694;2023-08-30T18:08:40;15.90;99.90
6484;DHT22;3275;52.376;9.694;2023-08-30T18:11:11;15.90;99.90
6484;DHT22;3275;52.376;9.694;2023-08-30T18:13:39;15.90;99.90
6484;DHT22;3275;52.376;9.694;2023-08-30T18:16:05;16.00;99.90
6484;DHT22;3275;52.376;9.694;2023-08-30T18:18:33;15.90;99.90
6484;DHT22;3275;52.376;9.694;2023-08-30T18:21:01;16.00;99.90
6484;DHT22;3275;52.376;9.694;2023-08-30T18:23:27;15.90;99.90
6484;DHT22;3275;52.376;9.694;2023-08-30T18:25:54;15.80;99.90
6484;DHT22;3275;52.376;9.694;2023-08-30T18:28:20;15.80;99.90
6484;DHT22;3275;52.376;9.694;2023-08-30T18:30:49;15.80;99.90
6484;DHT22;3275;52.376;9.694;2023-08-30T18:33:17;15.80;99.90
6484;DHT22;3275;52.376;9.694;2023-08-30T18:35:45;15.80;99.90
6484;DHT22;3275;52.376;9.694;2023-08-30T18:38:12;15.80;99.90
6484;DHT22;3275;52.376;9.694;2023-08-30T18:40:38;15.80;99.90
6484;DHT22;3275;52.376;9.694;2023-08-30T18:43:05;15.80;99.90
6484;DHT22;3275;52.376;9.694;2023-08-30T18:45:32;15.80;99.90
6484;DHT22;3275;52.376;9.694;2023-08-30T18:48:00;15.80;99.90
6484;DHT22;3275;52.376;9.694;2023-08-30T18:50:26;15.80;99.90
6484;DHT22;3275;52.376;9.694;2023-08-30T18:52:54;15.80;99.90
6484;DHT22;3275;52.376;9.694;2023-08-30T18:55:21;15.80;99.90
6484;DHT22;3275;52.376;9.694;2023-08-30T18:57:47;15.80;99.90
6484;DHT22;3275;52.376;9.694;2023-08-30T19:00:14;15.80;99.90
6484;DHT22;3275;52.376;9.694;2023-08-30T19:02:41;15.80;99.90
6484;DHT22;3275;52.376;9.694;2023-08-30T19:05:08;15.80;99.90
6484;DHT22;3275;52.376;9.694;2023-08-30T19:07:35;15.80;99.90
6484;DHT22;3275;52.376;9.694;2023-08-30T19:10:03;15.80;99.90
6484;DHT22;3275;52.376;9.694;2023-08-30T19:12:30;15.80;99.90
6484;DHT22;3275;52.376;9.694;2023-08-30T19:14:57;15.80;99.90
6484;DHT22;3275;52.376;9.694;2023-08-30T19:17:24;15.70;99.90
6484;DHT22;3275;52.376;9.694;2023-08-30T19:19:50;15.70;99.90
6484;DHT22;3275;52.376;9.694;2023-08-30T19:22:17;15.70;99.90
6484;DHT22;3275;52.376;9.694;2023-08-30T19:24:46;15.70;99.90
6484;DHT22;3275;52.376;9.694;2023-08-30T19:27:14;15.70;99.90
6484;DHT22;3275;52.376;9.694;2023-08-30T19:29:41;15.60;99.90
6484;DHT22;3275;52.376;9.694;2023-08-30T19:32:09;15.70;99.90
6484;DHT22;3275;52.376;9.694;2023-08-30T19:34:37;15.70;99.90
6484;DHT22;3275;52.376;9.694;2023-08-30T19:37:04;15.70;99.90
6484;DHT22;3275;52.376;9.694;2023-08-30T19:39:31;15.70;99.90
6484;DHT22;3275;52.376;9.694;2023-08-30T19:41:58;15.70;99.90
6484;DHT22;3275;52.376;9.694;2023-08-30T19:44:26;15.70;99.90
6484;DHT22;3275;52.376;9.694;2023-08-30T19:46:52;15.60;99.90
6484;DHT22;3275;52.376;9.694;2023-08-30T19:49:19;15.60;99.90
6484;DHT22;3275;52.376;9.694;2023-08-30T19:51:47;15.60;99.90
6484;DHT22;3275;52.376;9.694;2023-08-30T19:54:13;15.60;99.90
6484;DHT22;3275;52.376;9.694;2023-08-30T19:56:43;15.60;99.90
6484;DHT22;3275;52.376;9.694;2023-08-30T19:59:10;15.60;99.90
6484;DHT22;3275;52.376;9.694;2023-08-30T20:01:37;15.60;99.90
6484;DHT22;3275;52.376;9.694;2023-08-30T20:04:04;15.60;99.90
6484;DHT22;3275;52.376;9.694;2023-08-30T20:06:31;15.60;99.90
6484;DHT22;3275;52.376;9.694;2023-08-30T20:08:59;15.60;99.90
6484;DHT22;3275;52.376;9.694;2023-08-30T20:11:26;15.60;99.90
6484;DHT22;3275;52.376;9.694;2023-08-30T20:13:53;15.60;99.90
6484;DHT22;3275;52.376;9.694;2023-08-30T20:16:20;15.60;99.90
6484;DHT22;3275;52.376;9.694;2023-08-30T20:18:48;15.50;99.90
6484;DHT22;3275;52.376;9.694;2023-08-30T20:21:15;15.60;99.90
6484;DHT22;3275;52.376;9.694;2023-08-30T20:23:43;15.80;99.90
6484;DHT22;3275;52.376;9.694;2023-08-30T20:26:10;15.60;99.90
6484;DHT22;3275;52.376;9.694;2023-08-30T20:28:37;15.60;99.90
6484;DHT22;3275;52.376;9.694;2023-08-30T20:31:04;15.50;99.90
6484;DHT22;3275;52.376;9.694;2023-08-30T20:33:31;15.50;99.90
6484;DHT22;3275;52.376;9.694;2023-08-30T20:36:03;15.50;99.90
6484;DHT22;3275;52.376;9.694;2023-08-30T20:38:30;15.50;99.90
6484;DHT22;3275;52.376;9.694;2023-08-30T20:40:57;15.50;99.90
6484;DHT22;3275;52.376;9.694;2023-08-30T20:43:24;15.60;99.90
6484;DHT22;3275;52.376;9.694;2023-08-30T20:45:50;15.60;99.90
6484;DHT22;3275;52.376;9.694;2023-08-30T20:48:17;15.50;99.90
6484;DHT22;3275;52.376;9.694;2023-08-30T20:50:44;15.50;99.90
6484;DHT22;3275;52.376;9.694;2023-08-30T20:53:12;15.50;99.90
6484;DHT22;3275;52.376;9.694;2023-08-30T20:55:42;15.50;99.90
6484;DHT22;3275;52.376;9.694;2023-08-30T20:58:09;15.60;99.90
6484;DHT22;3275;52.376;9.694;2023-08-30T21:00:36;15.50;99.90
6484;DHT22;3275;52.376;9.694;2023-08-30T21:03:04;15.50;99.90
6484;DHT22;3275;52.376;9.694;2023-08-30T21:05:31;15.50;99.90
6484;DHT22;3275;52.376;9.694;2023-08-30T21:07:57;15.50;99.90
6484;DHT22;3275;52.376;9.694;2023-08-30T21:10:25;15.50;99.90
6484;DHT22;3275;52.376;9.694;2023-08-30T21:12:52;15.50;99.90
6484;DHT22;3275;52.376;9.694;2023-08-30T21:15:19;15.50;99.90
6484;DHT22;3275;52.376;9.694;2023-08-30T21:17:45;15.50;99.90
6484;DHT22;3275;52.376;9.694;2023-08-30T21:20:12;15.50;99.90
6484;DHT22;3275;52.376;9.694;2023-08-30T21:22:39;15.50;99.90
6484;DHT22;3275;52.376;9.694;2023-08-30T21:25:06;15.50;99.90
6484;DHT22;3275;52.376;9.694;2023-08-30T21:27:34;15.50;99.90
6484;DHT22;3275;52.376;9.694;2023-08-30T21:30:01;15.50;99.90
6484;DHT22;3275;52.376;9.694;2023-08-30T21:32:27;15.50;99.90
6484;DHT22;3275;52.376;9.694;2023-08-30T21:34:54;15.60;99.90
6484;DHT22;3275;52.376;9.694;2023-08-30T21:37:22;15.60;99.90
6484;DHT22;3275;52.376;9.694;2023-08-30T21:39:49;15.60;99.90
6484;DHT22;3275;52.376;9.694;2023-08-30T21:42:15;15.60;99.90
6484;DHT22;3275;52.376;9.694;2023-08-30T21:44:43;15.60;99.90
6484;DHT22;3275;52.376;9.694;2023-08-30T21:47:10;15.60;99.90
6484;DHT22;3275;52.376;9.694;2023-08-30T21:49:37;15.50;99.90
6484;DHT22;3275;52.376;9.694;2023-08-30T21:52:04;15.50;99.90
6484;DHT22;3275;52.376;9.694;2023-08-30T21:54:31;15.30;99.90
6484;DHT22;3275;52.376;9.694;2023-08-30T21:56:58;15.30;99.90
6484;DHT22;3275;52.376;9.694;2023-08-30T21:59:25;15.30;99.90
6484;DHT22;3275;52.376;9.694;2023-08-30T22:01:53;15.30;99.90
6484;DHT22;3275;52.376;9.694;2023-08-30T22:04:20;15.30;99.90
6484;DHT22;3275;52.376;9.694;2023-08-30T22:06:46;15.20;99.90
6484;DHT22;3275;52.376;9.694;2023-08-30T22:09:13;15.30;99.90
6484;DHT22;3275;52.376;9.694;2023-08-30T22:11:40;15.30;99.90
6484;DHT22;3275;52.376;9.694;2023-08-30T22:14:07;15.30;99.90
6484;DHT22;3275;52.376;9.694;2023-08-30T22:16:35;15.30;99.90
6484;DHT22;3275;52.376;9.694;2023-08-30T22:19:03;15.30;99.90
6484;DHT22;3275;52.376;9.694;2023-08-30T22:21:30;15.30;99.90
6484;DHT22;3275;52.376;9.694;2023-08-30T22:23:58;15.30;99.90
6484;DHT22;3275;52.376;9.694;2023-08-30T22:26:26;15.40;99.90
6484;DHT22;3275;52.376;9.694;2023-08-30T22:28:53;15.30;99.90
6484;DHT22;3275;52.376;9.694;2023-08-30T22:31:20;15.30;99.90
6484;DHT22;3275;52.376;9.694;2023-08-30T22:33:47;15.30;99.90
6484;DHT22;3275;52.376;9.694;2023-08-30T22:36:16;15.40;99.90
6484;DHT22;3275;52.376;9.694;2023-08-30T22:38:43;15.40;99.90
6484;DHT22;3275;52.376;9.694;2023-08-30T22:41:10;15.40;99.90
6484;DHT22;3275;52.376;9.694;2023-08-30T22:43:36;15.40;99.90
6484;DHT22;3275;52.376;9.694;2023-08-30T22:46:03;15.40;99.90
6484;DHT22;3275;52.376;9.694;2023-08-30T22:48:30;15.40;99.90
6484;DHT22;3275;52.376;9.694;2023-08-30T22:51:00;15.30;99.90
6484;DHT22;3275;52.376;9.694;2023-08-30T22:53:30;15.30;99.90
6484;DHT22;3275;52.376;9.694;2023-08-30T22:56:01;15.30;99.90
6484;DHT22;3275;52.376;9.694;2023-08-30T22:58:28;15.40;99.90
6484;DHT22;3275;52.376;9.694;2023-08-30T23:00:54;15.30;99.90
6484;DHT22;3275;52.376;9.694;2023-08-30T23:03:21;15.40;99.90
6484;DHT22;3275;52.376;9.694;2023-08-30T23:05:48;15.30;99.90
6484;DHT22;3275;52.376;9.694;2023-08-30T23:08:14;15.30;99.90
6484;DHT22;3275;52.376;9.694;2023-08-30T23:10:43;15.30;99.90
6484;DHT22;3275;52.376;9.694;2023-08-30T23:13:11;15.40;99.90
6484;DHT22;3275;52.376;9.694;2023-08-30T23:15:37;15.40;99.90
6484;DHT22;3275;52.376;9.694;2023-08-30T23:18:04;15.40;99.90
6484;DHT22;3275;52.376;9.694;2023-08-30T23:20:33;15.30;99.90
6484;DHT22;3275;52.376;9.694;2023-08-30T23:23:00;15.20;99.90
6484;DHT22;3275;52.376;9.694;2023-08-30T23:25:27;15.20;99.90
6484;DHT22;3275;52.376;9.694;2023-08-30T23:27:55;15.20;99.90
6484;DHT22;3275;52.376;9.694;2023-08-30T23:30:22;15.20;99.90
6484;DHT22;3275;52.376;9.694;2023-08-30T23:32:49;15.30;99.90
6484;DHT22;3275;52.376;9.694;2023-08-30T23:35:16;15.30;99.90
6484;DHT22;3275;52.376;9.694;2023-08-30T23:37:43;15.30;99.90
6484;DHT22;3275;52.376;9.694;2023-08-30T23:40:10;15.20;99.90
6484;DHT22;3275;52.376;9.694;2023-08-30T23:42:37;15.00;99.90
6484;DHT22;3275;52.376;9.694;2023-08-30T23:45:06;15.00;99.90
6484;DHT22;3275;52.376;9.694;2023-08-30T23:47:33;15.10;99.90
6484;DHT22;3275;52.376;9.694;2023-08-30T23:49:59;15.00;99.90
6484;DHT22;3275;52.376;9.694;2023-08-30T23:52:28;14.90;99.90
6484;DHT22;3275;52.376;9.694;2023-08-30T23:54:56;14.90;99.90
6484;DHT22;3275;52.376;9.694;2023-08-30T23:57:23;14.90;99.90
6484;DHT22;3275;52.376;9.694;2023-08-30T23:59:50;14.90;99.90
